createdAt,value
2019-03-20T00:04:50.980Z,17.80
2019-03-20T00:09:52.578Z,16.50
2019-03-20T00:14:54.150Z,16.77
2019-03-20T00:19:55.769Z,16.43
2019-03-20T00:24:57.361Z,17.60
2019-03-20T00:29:59.024Z,17.20
2019-03-20T00:35:01.499Z,16.93
2019-03-20T00:40:04.011Z,16.70
2019-03-20T00:45:06.848Z,17.23
2019-03-20T00:50:10.973Z,18.80
2019-03-20T00:55:12.503Z,16.77
2019-03-20T01:00:15.497Z,17.77
2019-03-20T01:05:17.038Z,17.80
2019-03-20T01:10:18.713Z,17.30
2019-03-20T01:15:20.681Z,17.23
2019-03-20T01:20:22.274Z,16.67
2019-03-20T01:25:23.822Z,17.13
2019-03-20T01:30:25.395Z,17.10
2019-03-20T01:35:27.339Z,18.23
2019-03-20T01:40:28.998Z,18.57
2019-03-20T01:45:30.542Z,19.50
2019-03-20T01:50:32.113Z,18.33
2019-03-20T01:55:33.707Z,19.73
2019-03-20T02:00:35.295Z,19.40
2019-03-20T02:05:36.868Z,18.73
2019-03-20T02:10:38.489Z,18.87
2019-03-20T02:15:40.160Z,19.17
2019-03-20T02:20:43.141Z,20.07
2019-03-20T02:25:44.709Z,19.17
2019-03-20T02:30:46.357Z,19.53
2019-03-20T02:35:51.814Z,20.37
2019-03-20T02:40:51.539Z,19.83
2019-03-20T02:45:53.562Z,20.60
2019-03-20T02:50:55.125Z,19.77
2019-03-20T02:55:56.769Z,20.23
2019-03-20T03:00:58.375Z,20.67
2019-03-20T03:06:06.877Z,20.60
2019-03-20T03:11:03.579Z,19.33
2019-03-20T03:16:05.185Z,19.77
2019-03-20T03:21:06.802Z,20.50
2019-03-20T03:26:09.139Z,21.67
2019-03-20T03:31:10.718Z,20.00
2019-03-20T03:36:21.355Z,20.50
2019-03-20T03:41:16.701Z,20.70
2019-03-20T03:46:18.292Z,19.87
2019-03-20T03:51:20.206Z,21.40
2019-03-20T03:56:22.186Z,21.13
2019-03-20T04:01:23.778Z,21.73
2019-03-20T04:06:35.600Z,20.97
2019-03-20T04:11:29.585Z,20.80
2019-03-20T04:16:31.687Z,20.73
2019-03-20T04:21:33.244Z,22.27
2019-03-20T04:26:35.190Z,21.43
2019-03-20T04:31:36.776Z,21.63
2019-03-20T04:36:47.258Z,22.37
2019-03-20T04:41:43.120Z,22.23
2019-03-20T04:46:45.069Z,21.10
2019-03-20T04:51:47.640Z,21.07
2019-03-20T04:56:49.314Z,20.30
2019-03-20T05:01:51.050Z,21.17
2019-03-20T05:06:58.685Z,19.30
2019-03-20T05:11:56.105Z,21.30
2019-03-20T05:16:57.721Z,20.87
2019-03-20T05:21:59.274Z,20.30
2019-03-20T05:27:00.895Z,19.53
2019-03-20T05:32:02.496Z,20.00
2019-03-20T05:37:10.413Z,22.23
2019-03-20T05:42:07.891Z,24.30
2019-03-20T05:47:10.476Z,22.97
2019-03-20T05:52:12.144Z,23.20
2019-03-20T05:57:14.143Z,24.40
2019-03-20T06:02:15.978Z,30.90
2019-03-20T06:07:21.795Z,24.67
2019-03-20T06:12:23.221Z,28.03
2019-03-20T06:17:24.818Z,27.43
2019-03-20T06:22:26.470Z,28.40
2019-03-20T06:27:28.409Z,29.23
2019-03-20T06:32:30.049Z,31.33
2019-03-20T06:37:32.869Z,31.07
2019-03-20T06:42:34.705Z,33.80
2019-03-20T06:47:36.572Z,33.77
2019-03-20T06:52:38.177Z,34.03
2019-03-20T06:57:39.735Z,34.50
2019-03-20T07:02:46.648Z,35.93
2019-03-20T07:07:48.653Z,34.20
2019-03-20T07:12:53.267Z,36.13
2019-03-20T07:17:55.145Z,35.37
2019-03-20T07:22:56.755Z,36.80
2019-03-20T07:27:58.353Z,37.30
2019-03-20T07:32:59.954Z,35.77
2019-03-20T07:38:01.652Z,36.40
2019-03-20T07:43:08.838Z,35.53
2019-03-20T07:48:07.115Z,36.13
2019-03-20T07:53:08.836Z,36.93
2019-03-20T07:58:10.433Z,36.17
2019-03-20T08:03:12.356Z,35.53
2019-03-20T08:08:13.942Z,39.03
2019-03-20T08:13:15.574Z,37.93
2019-03-20T08:18:17.895Z,37.43
2019-03-20T08:23:19.767Z,38.80
2019-03-20T08:28:21.384Z,40.27
2019-03-20T08:33:23.053Z,39.13
2019-03-20T08:38:24.709Z,37.80
2019-03-20T08:43:26.360Z,37.60
2019-03-20T08:48:27.927Z,37.43
2019-03-20T08:53:29.495Z,37.13
2019-03-20T08:58:31.197Z,37.57
2019-03-20T09:03:32.903Z,36.57
2019-03-20T09:08:34.900Z,37.53
2019-03-20T09:13:36.548Z,36.03
2019-03-20T09:18:38.207Z,37.57
2019-03-20T09:23:40.950Z,38.63
2019-03-20T09:28:42.659Z,39.30
2019-03-20T09:33:44.613Z,39.57
2019-03-20T09:38:46.197Z,39.47
2019-03-20T09:43:48.175Z,37.60
2019-03-20T09:48:50.173Z,38.40
2019-03-20T09:53:51.927Z,37.20
2019-03-20T09:58:53.474Z,36.77
2019-03-20T10:03:55.062Z,37.60
2019-03-20T10:08:56.697Z,37.67
2019-03-20T10:13:58.354Z,39.17
2019-03-20T10:19:00.430Z,39.07
2019-03-20T10:24:02.081Z,39.93
2019-03-20T10:29:03.686Z,39.60
2019-03-20T10:34:05.327Z,38.07
2019-03-20T10:39:07.470Z,39.20
2019-03-20T10:44:09.120Z,36.43
2019-03-20T10:49:11.410Z,36.80
2019-03-20T10:54:13.128Z,37.70
2019-03-20T10:59:14.747Z,37.37
2019-03-20T11:04:16.727Z,36.87
2019-03-20T11:09:18.817Z,37.13
2019-03-20T11:14:20.689Z,36.87
2019-03-20T11:19:22.794Z,36.00
2019-03-20T11:24:24.487Z,35.77
2019-03-20T11:29:26.203Z,36.53
2019-03-20T11:34:27.751Z,36.37
2019-03-20T11:39:30.135Z,37.03
2019-03-20T11:44:31.810Z,34.53
2019-03-20T11:49:33.478Z,34.17
2019-03-20T11:54:35.170Z,37.03
2019-03-20T11:59:36.955Z,36.53
2019-03-20T12:04:38.547Z,38.40
2019-03-20T12:09:41.214Z,35.43
2019-03-20T12:14:43.266Z,34.80
2019-03-20T12:19:46.022Z,34.33
2019-03-20T12:24:47.609Z,34.93
2019-03-20T12:29:50.050Z,35.30
2019-03-20T12:34:51.714Z,36.67
2019-03-20T12:39:54.191Z,38.57
2019-03-20T12:44:55.790Z,38.83
2019-03-20T12:49:57.389Z,37.87
2019-03-20T12:54:59.356Z,36.13
2019-03-20T13:00:01.829Z,35.93
2019-03-20T13:05:04.160Z,37.70
2019-03-20T13:10:07.462Z,36.03
2019-03-20T13:15:11.924Z,36.43
2019-03-20T13:20:13.797Z,35.43
2019-03-20T13:25:15.517Z,35.83
2019-03-20T13:30:20.647Z,34.90
2019-03-20T13:35:22.480Z,33.93
2019-03-20T13:40:24.488Z,35.57
2019-03-20T13:45:26.235Z,35.70
2019-03-20T13:50:27.833Z,36.27
2019-03-20T13:55:29.389Z,37.03
2019-03-20T14:00:31.068Z,35.83
2019-03-20T14:05:33.440Z,33.73
2019-03-20T14:10:49.605Z,33.23
2019-03-20T14:15:38.695Z,35.07
2019-03-20T14:20:40.724Z,36.33
2019-03-20T14:25:42.406Z,33.67
2019-03-20T14:30:44.013Z,33.70
2019-03-20T14:35:45.961Z,33.03
2019-03-20T14:40:47.654Z,33.93
2019-03-20T14:45:52.430Z,31.93
2019-03-20T14:50:54.044Z,30.93
2019-03-20T14:55:55.819Z,29.87
2019-03-20T15:00:57.799Z,31.57
2019-03-20T15:06:01.430Z,31.27
2019-03-20T15:11:04.290Z,29.60
2019-03-20T15:16:09.072Z,29.70
2019-03-20T15:21:10.779Z,25.83
2019-03-20T15:26:13.020Z,25.27
2019-03-20T15:31:14.615Z,21.37
2019-03-20T15:36:17.168Z,22.00
2019-03-20T15:41:18.793Z,20.53
2019-03-20T15:46:21.443Z,19.43
2019-03-20T15:51:23.066Z,20.97
2019-03-20T15:56:24.707Z,19.37
2019-03-20T16:01:26.730Z,13.87
2019-03-20T16:06:28.761Z,12.97
2019-03-20T16:11:30.395Z,10.70
2019-03-20T16:16:32.158Z,11.70
2019-03-20T16:21:35.323Z,11.90
2019-03-20T16:26:36.904Z,11.50
2019-03-20T16:31:38.537Z,12.33
2019-03-20T16:36:40.195Z,11.87
2019-03-20T16:41:42.721Z,12.27
2019-03-20T16:46:44.863Z,13.00
2019-03-20T16:51:47.793Z,13.13
2019-03-20T16:56:49.930Z,12.73
2019-03-20T17:01:51.793Z,12.60
2019-03-20T17:06:53.529Z,12.97
2019-03-20T17:11:55.753Z,14.40
2019-03-20T17:16:57.945Z,14.93
2019-03-20T17:22:00.041Z,16.23
2019-03-20T17:27:02.409Z,14.80
2019-03-20T17:32:04.338Z,14.80
2019-03-20T17:37:06.791Z,14.70
2019-03-20T17:42:08.724Z,14.67
2019-03-20T17:47:10.568Z,14.13
2019-03-20T17:52:12.192Z,11.73
2019-03-20T17:57:14.618Z,11.83
2019-03-20T18:02:23.590Z,10.73
2019-03-20T18:07:21.095Z,13.73
2019-03-20T18:12:23.029Z,11.80
2019-03-20T18:17:24.742Z,11.57
2019-03-20T18:22:26.497Z,11.03
2019-03-20T18:27:28.987Z,12.07
2019-03-20T18:32:30.578Z,11.47
2019-03-20T18:37:32.193Z,10.87
2019-03-20T18:42:34.101Z,12.00
2019-03-20T18:47:36.270Z,11.10
2019-03-20T18:52:38.590Z,10.60
2019-03-20T18:57:40.848Z,10.70
2019-03-20T19:02:42.487Z,10.33
2019-03-20T19:07:44.268Z,10.23
2019-03-20T19:12:46.382Z,10.33
2019-03-20T19:17:48.600Z,9.93
2019-03-20T19:22:51.003Z,11.63
2019-03-20T19:27:52.634Z,10.90
2019-03-20T19:32:54.578Z,10.70
2019-03-20T19:37:56.604Z,12.50
2019-03-20T19:42:58.409Z,11.67
2019-03-20T19:48:00.311Z,11.00
2019-03-20T19:53:02.286Z,11.70
2019-03-20T19:58:04.240Z,11.63
2019-03-20T20:03:05.898Z,11.23
2019-03-20T20:08:08.005Z,12.37
2019-03-20T20:13:09.739Z,12.77
2019-03-20T20:18:12.331Z,13.90
2019-03-20T20:23:14.497Z,15.43
2019-03-20T20:28:16.228Z,14.60
2019-03-20T20:33:19.393Z,13.77
2019-03-20T20:38:20.962Z,13.03
2019-03-20T20:43:22.582Z,13.10
2019-03-20T20:48:24.404Z,15.13
2019-03-20T20:53:26.090Z,13.77
2019-03-20T20:58:28.016Z,15.53
2019-03-20T21:03:29.709Z,13.50
2019-03-20T21:08:32.390Z,14.93
2019-03-20T21:13:34.149Z,15.20
2019-03-20T21:19:15.216Z,15.33
2019-03-20T21:24:21.594Z,15.17
2019-03-20T21:30:13.304Z,17.00
2019-03-20T21:36:08.958Z,16.33
2019-03-20T21:41:55.697Z,16.27
2019-03-20T21:47:26.693Z,21.77
2019-03-20T21:52:28.962Z,16.37
2019-03-20T21:58:02.366Z,16.87
2019-03-20T22:03:04.577Z,17.60
2019-03-20T22:08:08.546Z,18.30
2019-03-20T22:13:19.084Z,18.00
2019-03-20T22:18:57.628Z,19.40
2019-03-20T22:24:36.869Z,19.87
2019-03-20T22:29:39.052Z,20.03
2019-03-20T22:34:54.867Z,21.20
2019-03-20T22:40:52.330Z,21.80
2019-03-20T22:46:37.544Z,22.20
2019-03-20T22:51:57.589Z,21.97
2019-03-20T22:57:33.412Z,20.93
2019-03-20T23:02:57.808Z,25.00
2019-03-20T23:07:59.901Z,25.77
2019-03-20T23:13:02.119Z,25.80
2019-03-20T23:18:04.314Z,26.63
2019-03-20T23:23:06.564Z,22.63
2019-03-20T23:28:08.704Z,23.53
2019-03-20T23:33:10.958Z,24.87
2019-03-20T23:38:13.062Z,22.87
2019-03-20T23:43:15.263Z,21.37
2019-03-20T23:48:24.699Z,23.73
2019-03-20T23:53:26.876Z,23.40
2019-03-20T23:58:29.073Z,21.10
